Time;durP1;ratioP1;P1;durP2;ratioP2;P2;SDS_P1;SDS_P2;PMS_P1;PMS_P2;Temp;Humidity;BMP_temperature;BMP_pressure;BME280_temperature;BME280_humidity;BME280_pressure;Samples;Min_cycle;Max_cycle;Signal;HPM_P1;HPM_P2
2022/06/25 00:02:25;;;;;;;1.20;1.10;;;14.20;99.90;;;;;;5076521;28;20231;-77
2022/06/25 00:07:40;;;;;;;2.23;1.20;;;14.20;99.90;;;;;;5076041;28;20235;-78
2022/06/25 00:10:09;;;;;;;1.73;0.97;;;14.10;99.90;;;;;;5073024;28;20199;-78
2022/06/25 00:12:36;;;;;;;1.43;1.03;;;14.20;99.90;;;;;;5074016;28;20274;-77
2022/06/25 00:15:07;;;;;;;1.30;1.20;;;14.10;99.90;;;;;;5065991;28;20208;-77
2022/06/25 00:17:35;;;;;;;1.67;1.20;;;14.20;99.90;;;;;;5072595;28;20238;-77
2022/06/25 00:20:09;;;;;;;2.13;1.30;;;14.10;99.90;;;;;;5071175;28;20608;-77
2022/06/25 00:22:37;;;;;;;1.63;1.17;;;14.10;99.90;;;;;;5072201;28;20231;-78
2022/06/25 00:25:06;;;;;;;1.87;1.20;;;14.10;99.90;;;;;;5079114;28;20263;-77
2022/06/25 00:27:34;;;;;;;2.33;1.10;;;14.10;99.90;;;;;;5072909;28;20242;-79
2022/06/25 00:30:04;;;;;;;2.40;1.13;;;14.10;99.90;;;;;;5066137;28;20204;-77
2022/06/25 00:32:32;;;;;;;3.40;1.27;;;14.20;99.90;;;;;;5067638;28;20246;-77
2022/06/25 00:35:00;;;;;;;1.00;0.90;;;14.10;99.90;;;;;;5072519;28;20244;-77
2022/06/25 00:37:29;;;;;;;1.50;1.00;;;14.10;99.90;;;;;;5082911;28;20210;-77
2022/06/25 00:39:58;;;;;;;1.43;1.10;;;14.10;99.90;;;;;;5070092;28;20264;-78
2022/06/25 00:42:26;;;;;;;1.63;1.20;;;14.10;99.90;;;;;;5080828;28;20261;-77
2022/06/25 00:44:55;;;;;;;1.20;1.17;;;14.10;99.90;;;;;;5076557;28;20215;-77
2022/06/25 00:47:26;;;;;;;1.90;1.20;;;14.10;99.90;;;;;;5077184;28;20206;-77
2022/06/25 00:49:55;;;;;;;1.53;1.10;;;14.10;99.90;;;;;;5071161;28;20246;-78
2022/06/25 00:52:26;;;;;;;1.57;1.07;;;14.10;99.90;;;;;;5077009;28;20269;-78
2022/06/25 00:54:59;;;;;;;2.07;1.17;;;14.10;99.90;;;;;;5075207;28;20250;-79
2022/06/25 00:57:29;;;;;;;1.30;1.20;;;14.10;99.90;;;;;;5080414;28;20289;-79
2022/06/25 01:00:02;;;;;;;2.70;1.30;;;14.10;99.90;;;;;;5076779;28;20280;-77
2022/06/25 01:02:30;;;;;;;1.50;1.07;;;14.10;99.90;;;;;;5078281;28;20234;-78
2022/06/25 01:04:58;;;;;;;1.20;1.10;;;14.10;99.90;;;;;;5076609;28;20237;-79
2022/06/25 01:07:26;;;;;;;1.90;1.20;;;14.10;99.90;;;;;;5077293;28;20265;-77
2022/06/25 01:09:58;;;;;;;3.63;1.30;;;14.10;99.90;;;;;;5088020;28;20203;-80
2022/06/25 01:12:26;;;;;;;1.90;1.20;;;14.20;99.90;;;;;;5081629;28;20315;-78
2022/06/25 01:15:01;;;;;;;1.30;1.20;;;14.20;99.90;;;;;;5086785;28;20290;-80
2022/06/25 01:17:30;;;;;;;3.60;1.47;;;14.20;99.90;;;;;;5080951;28;20215;-80
2022/06/25 01:19:59;;;;;;;2.77;1.33;;;14.20;99.90;;;;;;5083037;28;20210;-79
2022/06/25 01:22:28;;;;;;;1.47;1.20;;;14.20;99.90;;;;;;5069789;28;20215;-78
2022/06/25 01:24:57;;;;;;;1.10;1.10;;;14.20;99.90;;;;;;5082409;28;20210;-78
2022/06/25 01:27:25;;;;;;;1.50;1.40;;;14.20;99.90;;;;;;5082141;28;20203;-78
2022/06/25 01:29:53;;;;;;;2.87;1.20;;;14.20;99.90;;;;;;5074876;28;20251;-81
2022/06/25 01:32:21;;;;;;;3.60;1.30;;;14.20;99.90;;;;;;5085400;28;20223;-77
2022/06/25 01:34:49;;;;;;;3.30;1.20;;;14.20;99.90;;;;;;5080208;28;20305;-79
2022/06/25 01:37:17;;;;;;;1.37;1.20;;;14.20;99.90;;;;;;5081295;28;20579;-78
2022/06/25 01:39:47;;;;;;;2.03;1.10;;;14.20;99.90;;;;;;5071952;28;20211;-79
2022/06/25 01:44:57;;;;;;;4.47;1.47;;;14.20;99.90;;;;;;5077164;28;20642;-78
2022/06/25 01:47:26;;;;;;;2.20;1.03;;;14.20;99.90;;;;;;5077571;28;20731;-80
2022/06/25 01:49:54;;;;;;;2.60;1.23;;;14.30;99.90;;;;;;5076202;28;20243;-79
2022/06/25 01:52:22;;;;;;;2.00;1.20;;;14.30;99.90;;;;;;5071557;28;20262;-79
2022/06/25 01:54:51;;;;;;;2.17;1.17;;;14.30;99.90;;;;;;5072257;28;20211;-78
2022/06/25 01:57:20;;;;;;;1.97;1.10;;;14.20;99.90;;;;;;5075887;28;20211;-79
2022/06/25 01:59:48;;;;;;;2.37;1.30;;;14.30;99.90;;;;;;5075600;28;20616;-79
2022/06/25 02:02:16;;;;;;;4.30;1.17;;;14.20;99.90;;;;;;5081047;28;20329;-78
2022/06/25 02:04:45;;;;;;;2.30;1.20;;;14.20;99.90;;;;;;5086187;28;20700;-74
2022/06/25 02:07:13;;;;;;;2.20;1.10;;;14.30;99.90;;;;;;5080833;28;20733;-75
2022/06/25 02:09:41;;;;;;;0.90;0.90;;;14.30;99.90;;;;;;5082694;28;20213;-78
2022/06/25 02:12:11;;;;;;;2.23;1.20;;;14.30;99.90;;;;;;5073048;28;20262;-79
2022/06/25 02:14:39;;;;;;;3.33;1.10;;;14.30;99.90;;;;;;5076647;28;20211;-78
2022/06/25 02:17:08;;;;;;;3.30;1.10;;;14.30;99.90;;;;;;5071737;28;20204;-73
2022/06/25 02:19:36;;;;;;;2.57;1.20;;;14.30;99.90;;;;;;5069671;28;20661;-73
2022/06/25 02:22:05;;;;;;;3.03;1.10;;;14.30;99.90;;;;;;5069647;28;20272;-75
2022/06/25 02:24:33;;;;;;;2.23;1.10;;;14.30;99.90;;;;;;5065503;28;20222;-77
2022/06/25 02:27:01;;;;;;;2.00;1.20;;;14.30;99.90;;;;;;5066215;28;20237;-73
2022/06/25 02:29:31;;;;;;;1.93;0.93;;;14.30;99.90;;;;;;5077217;28;20219;-78
2022/06/25 02:32:00;;;;;;;2.30;1.30;;;14.30;99.90;;;;;;5076183;28;20313;-77
2022/06/25 02:34:28;;;;;;;2.63;1.10;;;14.30;99.90;;;;;;5077401;28;20365;-74
2022/06/25 02:36:57;;;;;;;2.97;1.30;;;14.30;99.90;;;;;;5075467;28;20207;-74
2022/06/25 02:39:25;;;;;;;2.50;1.40;;;14.30;99.90;;;;;;5075211;28;20673;-76
2022/06/25 02:41:53;;;;;;;2.53;1.20;;;14.30;99.90;;;;;;5074295;28;20211;-76
2022/06/25 02:44:22;;;;;;;3.67;1.30;;;14.30;99.90;;;;;;5072171;28;20235;-74
2022/06/25 02:46:52;;;;;;;4.73;1.30;;;14.30;99.90;;;;;;5072351;28;20251;-77
2022/06/25 02:49:20;;;;;;;3.77;1.20;;;14.30;99.90;;;;;;5076213;28;20211;-76
2022/06/25 02:51:48;;;;;;;2.43;1.10;;;14.30;99.90;;;;;;5074211;28;20597;-74
2022/06/25 02:54:16;;;;;;;3.80;1.10;;;14.30;99.90;;;;;;5080375;28;20207;-74
2022/06/25 02:59:30;;;;;;;1.87;1.10;;;14.30;99.90;;;;;;5077864;28;20246;-77
2022/06/25 03:02:00;;;;;;;1.30;1.20;;;14.30;99.90;;;;;;5072248;28;20254;-80
2022/06/25 03:04:28;;;;;;;3.83;1.40;;;14.30;99.90;;;;;;5078931;28;20694;-76
2022/06/25 03:06:56;;;;;;;5.03;1.40;;;14.30;99.90;;;;;;5070796;28;20243;-74
2022/06/25 03:09:25;;;;;;;2.30;1.50;;;14.30;99.90;;;;;;5072006;28;20203;-75
2022/06/25 03:11:53;;;;;;;2.97;1.20;;;14.30;99.90;;;;;;5073691;28;20274;-80
2022/06/25 03:14:21;;;;;;;1.37;1.27;;;14.30;99.90;;;;;;5074092;28;20281;-73
2022/06/25 03:16:49;;;;;;;2.63;1.50;;;14.30;99.90;;;;;;5072995;28;20310;-75
2022/06/25 03:19:19;;;;;;;5.50;1.53;;;14.30;99.90;;;;;;5073872;28;20250;-75
2022/06/25 03:21:47;;;;;;;4.60;1.53;;;14.30;99.90;;;;;;5073981;28;20266;-76
2022/06/25 03:24:15;;;;;;;3.87;1.50;;;14.30;99.90;;;;;;5073031;28;20658;-78
2022/06/25 03:26:44;;;;;;;3.40;1.40;;;14.30;99.90;;;;;;5073629;28;20231;-77
2022/06/25 03:29:12;;;;;;;5.70;1.90;;;14.30;99.90;;;;;;5074346;28;20249;-77
2022/06/25 03:31:40;;;;;;;2.50;1.43;;;14.30;99.90;;;;;;5072347;28;20254;-77
2022/06/25 03:34:09;;;;;;;4.03;1.63;;;14.30;99.90;;;;;;5073348;28;20278;-76
2022/06/25 03:36:39;;;;;;;2.77;1.50;;;14.30;99.90;;;;;;5073137;28;20230;-76
2022/06/25 03:39:07;;;;;;;2.47;1.80;;;14.30;99.90;;;;;;5072933;28;20294;-76
2022/06/25 03:41:36;;;;;;;2.47;1.30;;;14.30;99.90;;;;;;5072025;28;20247;-76
2022/06/25 03:44:06;;;;;;;1.80;1.40;;;14.40;99.90;;;;;;5079404;28;20546;-77
2022/06/25 03:46:36;;;;;;;4.63;1.80;;;14.40;99.90;;;;;;5078841;28;20203;-76
2022/06/25 03:49:06;;;;;;;3.13;2.20;;;14.40;99.90;;;;;;5074757;28;20207;-75
2022/06/25 03:51:34;;;;;;;5.07;1.90;;;14.40;99.90;;;;;;5069291;28;20278;-80
2022/06/25 03:54:04;;;;;;;4.40;1.60;;;14.40;99.90;;;;;;5068376;28;20259;-77
2022/06/25 03:56:32;;;;;;;2.27;1.50;;;14.40;99.90;;;;;;5060366;28;20246;-78
2022/06/25 03:59:00;;;;;;;2.07;1.57;;;14.50;99.90;;;;;;5060214;28;20580;-75
2022/06/25 04:01:28;;;;;;;1.50;1.40;;;14.50;99.90;;;;;;5080579;28;20210;-79
2022/06/25 04:03:56;;;;;;;4.90;1.90;;;14.50;99.90;;;;;;5077995;28;20224;-74
2022/06/25 04:06:25;;;;;;;3.00;1.47;;;14.50;99.90;;;;;;5082601;28;20227;-74
2022/06/25 04:08:53;;;;;;;8.53;2.10;;;14.50;99.90;;;;;;5079325;28;20240;-76
2022/06/25 04:11:23;;;;;;;2.90;1.43;;;14.50;99.90;;;;;;5077058;28;20208;-80
2022/06/25 04:13:51;;;;;;;2.83;1.70;;;14.60;99.90;;;;;;5077137;28;20227;-76
2022/06/25 04:16:19;;;;;;;4.10;1.53;;;14.60;99.90;;;;;;5079625;28;20191;-78
2022/06/25 04:18:48;;;;;;;5.07;1.50;;;14.70;99.90;;;;;;5081051;28;20207;-77
2022/06/25 04:21:19;;;;;;;2.80;1.60;;;14.70;99.90;;;;;;5086329;28;20235;-78
2022/06/25 04:23:47;;;;;;;5.47;1.80;;;14.80;99.90;;;;;;5084879;28;20199;-74
2022/06/25 04:26:18;;;;;;;2.63;1.40;;;14.80;99.90;;;;;;5074461;28;20200;-74
2022/06/25 04:29:05;;;;;;;4.27;1.40;;;14.80;99.90;;;;;;5085799;28;20219;-77
2022/06/25 04:31:35;;;;;;;2.40;1.47;;;14.90;99.90;;;;;;5075199;28;20214;-76
2022/06/25 04:34:04;;;;;;;3.27;1.53;;;14.90;99.90;;;;;;5077076;28;20231;-75
2022/06/25 04:36:32;;;;;;;5.07;1.40;;;15.00;99.90;;;;;;5073146;28;20574;-77
2022/06/25 04:39:00;;;;;;;5.33;1.50;;;15.00;99.90;;;;;;5073691;28;20241;-78
2022/06/25 04:41:28;;;;;;;6.03;1.50;;;15.00;99.90;;;;;;5085389;28;20245;-75
2022/06/25 04:44:01;;;;;;;3.03;1.57;;;15.00;99.90;;;;;;5093674;28;20204;-79
2022/06/25 04:46:30;;;;;;;2.93;1.33;;;15.10;99.90;;;;;;5089444;28;20302;-76
2022/06/25 04:48:59;;;;;;;5.63;1.30;;;15.10;99.90;;;;;;5089308;28;20227;-75
2022/06/25 04:51:28;;;;;;;6.53;1.43;;;15.20;99.90;;;;;;5086810;28;20216;-77
2022/06/25 04:53:56;;;;;;;4.10;1.50;;;15.30;99.90;;;;;;5086011;28;20223;-77
2022/06/25 04:56:26;;;;;;;2.40;1.13;;;15.40;99.90;;;;;;5090377;28;20242;-77
2022/06/25 04:58:55;;;;;;;3.83;1.43;;;15.50;99.90;;;;;;5088181;28;20247;-75
2022/06/25 05:01:25;;;;;;;2.33;1.20;;;15.60;99.90;;;;;;5088050;28;20206;-76
2022/06/25 05:03:53;;;;;;;1.60;1.10;;;15.80;99.90;;;;;;5085052;28;20246;-74
2022/06/25 05:06:22;;;;;;;4.67;1.20;;;15.90;99.90;;;;;;5082782;28;20203;-76
2022/06/25 05:08:50;;;;;;;3.90;1.00;;;16.00;99.90;;;;;;5080257;28;20203;-76
2022/06/25 05:11:18;;;;;;;5.23;1.30;;;16.20;99.90;;;;;;5085133;28;20585;-76
2022/06/25 05:13:50;;;;;;;2.30;0.90;;;16.30;99.90;;;;;;5076003;28;20228;-79
2022/06/25 05:16:18;;;;;;;3.17;1.07;;;16.30;99.90;;;;;;5070135;28;20234;-76
2022/06/25 05:18:48;;;;;;;0.97;0.90;;;16.40;99.90;;;;;;5068326;28;20560;-75
2022/06/25 05:21:16;;;;;;;3.70;0.90;;;16.60;99.90;;;;;;5075504;28;20212;-75
2022/06/25 05:23:45;;;;;;;1.77;0.93;;;16.70;99.90;;;;;;5070877;28;20184;-74
2022/06/25 05:26:14;;;;;;;0.90;0.90;;;16.80;99.90;;;;;;5076586;28;20231;-75
2022/06/25 05:28:43;;;;;;;1.50;0.90;;;16.90;99.90;;;;;;5079654;28;20202;-76
2022/06/25 05:31:11;;;;;;;2.03;0.80;;;17.10;99.90;;;;;;5081238;28;20211;-74
2022/06/25 05:33:39;;;;;;;3.03;0.97;;;17.10;99.90;;;;;;5078522;28;20220;-76
2022/06/25 05:36:09;;;;;;;3.53;1.00;;;17.30;99.90;;;;;;5077866;28;20604;-76
2022/06/25 05:38:37;;;;;;;3.13;0.70;;;17.40;99.90;;;;;;5081618;28;20218;-76
2022/06/25 05:41:08;;;;;;;1.40;0.70;;;17.60;99.90;;;;;;5083094;28;20277;-74
2022/06/25 05:43:36;;;;;;;3.70;0.90;;;17.90;99.90;;;;;;5082250;28;20204;-75
2022/06/25 05:46:05;;;;;;;1.93;0.83;;;18.00;99.90;;;;;;5082644;28;20203;-75
2022/06/25 05:48:34;;;;;;;5.27;0.87;;;17.90;99.90;;;;;;5077079;28;20214;-75
2022/06/25 05:51:02;;;;;;;3.63;1.10;;;18.10;99.90;;;;;;5077339;28;20405;-75
2022/06/25 05:53:33;;;;;;;5.93;1.20;;;18.10;99.90;;;;;;5077092;28;20222;-75
2022/06/25 05:56:01;;;;;;;1.83;0.87;;;17.90;99.90;;;;;;5076550;28;20692;-76
2022/06/25 05:58:29;;;;;;;1.50;0.97;;;18.00;99.90;;;;;;5083477;28;20261;-79
2022/06/25 06:00:57;;;;;;;3.93;1.20;;;18.00;99.90;;;;;;5081279;28;20208;-77
2022/06/25 06:03:25;;;;;;;2.60;1.17;;;18.10;99.90;;;;;;5081579;28;20319;-76
2022/06/25 06:05:54;;;;;;;2.70;0.97;;;18.30;99.90;;;;;;5081411;28;20238;-75
2022/06/25 06:08:22;;;;;;;3.50;0.93;;;18.70;99.90;;;;;;5080528;28;20253;-76
2022/06/25 06:10:52;;;;;;;4.07;1.10;;;19.00;99.90;;;;;;5079476;28;20251;-76
2022/06/25 06:13:20;;;;;;;0.80;0.70;;;19.50;99.90;;;;;;5082197;28;20265;-76
2022/06/25 06:15:48;;;;;;;2.00;1.00;;;19.80;99.90;;;;;;5075000;28;20262;-75
2022/06/25 06:18:17;;;;;;;2.70;0.80;;;20.70;99.90;;;;;;5077301;28;20203;-75
2022/06/25 06:20:45;;;;;;;2.90;0.80;;;20.90;99.90;;;;;;5075831;28;20727;-75
2022/06/25 06:23:13;;;;;;;2.03;0.80;;;21.10;99.90;;;;;;5078323;28;20210;-76
2022/06/25 06:25:41;;;;;;;1.30;0.80;;;21.10;99.90;;;;;;5083024;28;20231;-78
2022/06/25 06:28:11;;;;;;;2.50;0.90;;;21.00;99.90;;;;;;5078486;28;20208;-77
2022/06/25 06:30:39;;;;;;;9.27;1.43;;;20.80;99.90;;;;;;5075994;28;20207;-76
2022/06/25 06:33:08;;;;;;;4.97;1.40;;;20.30;99.90;;;;;;5067348;28;20551;-78
2022/06/25 06:35:36;;;;;;;4.73;1.00;;;19.90;99.90;;;;;;5076991;28;20223;-76
2022/06/25 06:38:05;;;;;;;11.00;1.63;;;19.90;99.90;;;;;;5072258;28;20617;-78
2022/06/25 06:40:34;;;;;;;5.47;1.40;;;19.80;99.90;;;;;;5073633;28;20214;-75
2022/06/25 06:43:03;;;;;;;1.23;0.87;;;20.40;99.90;;;;;;5074214;28;20258;-75
2022/06/25 06:45:33;;;;;;;4.73;1.30;;;22.00;99.90;;;;;;5073641;28;20200;-77
2022/06/25 06:48:01;;;;;;;2.27;1.00;;;24.00;99.90;;;;;;5073596;28;20249;-78
2022/06/25 06:50:29;;;;;;;10.63;1.20;;;25.30;99.90;;;;;;5079187;28;20306;-78
2022/06/25 06:52:58;;;;;;;5.20;0.80;;;27.00;99.90;;;;;;5084686;28;20210;-78
2022/06/25 06:55:26;;;;;;;2.20;0.70;;;28.30;99.90;;;;;;5073652;28;20297;-76
2022/06/25 06:57:54;;;;;;;3.38;0.90;;;29.50;99.90;;;;;;5083071;28;20243;-77
2022/06/25 07:00:22;;;;;;;2.40;0.70;;;29.80;99.90;;;;;;5076932;28;20624;-77
2022/06/25 07:02:52;;;;;;;0.68;0.60;;;30.40;99.90;;;;;;5081918;28;20203;-78
2022/06/25 07:05:20;;;;;;;0.82;0.63;;;31.00;98.90;;;;;;5075018;28;20220;-76
2022/06/25 07:07:48;;;;;;;3.20;0.90;;;31.50;97.50;;;;;;5076727;28;20203;-79
2022/06/25 07:10:17;;;;;;;0.95;0.70;;;31.50;96.20;;;;;;5071664;28;20662;-78
2022/06/25 07:12:45;;;;;;;5.70;0.90;;;31.60;95.10;;;;;;5074314;28;20290;-80
2022/06/25 07:15:13;;;;;;;1.25;0.75;;;31.90;96.70;;;;;;5072870;28;20587;-75
2022/06/25 07:17:42;;;;;;;1.48;0.80;;;32.10;94.50;;;;;;5067585;28;20261;-80
2022/06/25 07:20:12;;;;;;;1.50;0.85;;;31.40;92.30;;;;;;5070350;28;20214;-81
2022/06/25 07:22:40;;;;;;;4.78;1.00;;;30.20;94.50;;;;;;5067630;28;20253;-82
2022/06/25 07:25:09;;;;;;;3.03;0.80;;;29.10;97.40;;;;;;5071188;28;20290;-77
2022/06/25 07:27:38;;;;;;;1.80;0.90;;;28.10;99.90;;;;;;5066934;28;20199;-80
2022/06/25 07:30:07;;;;;;;3.00;0.82;;;27.20;99.90;;;;;;5074203;28;20294;-78
2022/06/25 07:32:35;;;;;;;2.75;0.77;;;26.00;99.90;;;;;;5074355;28;20242;-77
2022/06/25 07:35:04;;;;;;;2.13;0.80;;;24.70;99.90;;;;;;5073751;28;20311;-76
2022/06/25 07:37:34;;;;;;;5.28;0.90;;;24.10;99.90;;;;;;5071424;28;20285;-80
2022/06/25 07:40:03;;;;;;;3.40;1.00;;;23.40;99.90;;;;;;5070506;28;20203;-75
2022/06/25 07:42:31;;;;;;;2.13;0.70;;;23.20;99.90;;;;;;5068632;28;20224;-78
2022/06/25 07:44:59;;;;;;;3.17;0.90;;;22.90;99.90;;;;;;5066343;28;20235;-76
2022/06/25 07:47:28;;;;;;;2.30;0.90;;;22.80;99.90;;;;;;5079587;28;20211;-80
2022/06/25 07:52:46;;;;;;;1.83;1.10;;;22.40;99.90;;;;;;5076557;28;20643;-76
2022/06/25 07:55:20;;;;;;;3.67;1.20;;;22.40;99.90;;;;;;5070824;28;20623;-77
2022/06/25 07:57:48;;;;;;;2.17;1.30;;;22.60;99.90;;;;;;5077723;28;20238;-79
2022/06/25 08:00:17;;;;;;;1.77;1.03;;;22.70;99.90;;;;;;5071570;28;20632;-79
2022/06/25 08:02:46;;;;;;;2.27;1.10;;;22.80;99.90;;;;;;5074066;28;20243;-78
2022/06/25 08:05:15;;;;;;;3.80;1.20;;;22.90;99.90;;;;;;5072141;28;20426;-78
2022/06/25 08:07:43;;;;;;;2.50;1.00;;;23.00;99.90;;;;;;5073623;28;20641;-78
2022/06/25 08:10:12;;;;;;;1.60;1.10;;;22.90;99.90;;;;;;5067566;28;20238;-75
2022/06/25 08:12:40;;;;;;;2.80;0.80;;;22.80;99.90;;;;;;5072085;28;20294;-79
2022/06/25 08:15:09;;;;;;;2.87;1.00;;;22.80;99.90;;;;;;5075584;28;20570;-77
2022/06/25 08:17:38;;;;;;;4.40;1.20;;;22.90;99.90;;;;;;5075495;28;20243;-78
2022/06/25 08:20:07;;;;;;;2.30;1.20;;;22.80;99.90;;;;;;5069458;28;20285;-79
2022/06/25 08:22:35;;;;;;;2.87;1.10;;;22.80;99.90;;;;;;5072440;28;20293;-78
2022/06/25 08:25:04;;;;;;;2.10;1.13;;;22.80;99.90;;;;;;5083989;28;20632;-78
2022/06/25 08:27:34;;;;;;;3.63;1.03;;;23.00;99.90;;;;;;5072311;28;20290;-80
2022/06/25 08:30:04;;;;;;;2.07;0.93;;;23.00;99.90;;;;;;5082736;28;20214;-79
2022/06/25 08:32:32;;;;;;;2.57;1.30;;;23.50;99.90;;;;;;5077816;28;20265;-78
2022/06/25 08:35:00;;;;;;;2.33;1.10;;;23.70;99.90;;;;;;5082162;28;20278;-79
2022/06/25 08:37:28;;;;;;;2.60;0.97;;;24.20;99.90;;;;;;5069811;28;20734;-82
2022/06/25 08:39:58;;;;;;;1.93;0.90;;;24.60;99.90;;;;;;5068434;28;20254;-80
2022/06/25 08:42:26;;;;;;;2.70;1.00;;;25.00;99.90;;;;;;5072152;28;20215;-82
2022/06/25 08:44:56;;;;;;;2.13;0.90;;;25.10;99.90;;;;;;5083608;28;20207;-81
2022/06/25 08:47:24;;;;;;;2.13;1.10;;;25.10;99.90;;;;;;5070139;28;20235;-81
2022/06/25 08:49:54;;;;;;;1.53;0.90;;;25.20;99.90;;;;;;5067937;28;20211;-81
2022/06/25 08:52:23;;;;;;;2.78;1.05;;;25.40;99.90;;;;;;5056270;28;20212;-79
2022/06/25 08:54:54;;;;;;;3.73;1.23;;;25.20;99.90;;;;;;5074161;28;20294;-78
2022/06/25 08:57:22;;;;;;;1.70;0.63;;;25.40;99.90;;;;;;5067281;28;20685;-78
2022/06/25 08:59:51;;;;;;;2.47;0.83;;;25.50;99.90;;;;;;5072722;28;20238;-79
2022/06/25 09:02:21;;;;;;;1.65;0.90;;;25.60;99.90;;;;;;5072054;28;20234;-80
2022/06/25 09:04:49;;;;;;;1.40;0.95;;;26.30;99.90;;;;;;5072479;28;20214;-79
2022/06/25 09:07:20;;;;;;;3.08;0.73;;;26.90;99.90;;;;;;5079783;28;20247;-76
2022/06/25 09:09:50;;;;;;;0.70;0.70;;;27.40;99.90;;;;;;5080489;28;20256;-81
2022/06/25 09:12:19;;;;;;;2.05;0.85;;;28.30;99.90;;;;;;5068670;28;20916;-82
2022/06/25 09:14:48;;;;;;;4.03;1.00;;;28.40;99.90;;;;;;5072662;28;20204;-82
2022/06/25 09:17:20;;;;;;;2.25;0.90;;;28.10;99.90;;;;;;5068111;28;20227;-81
2022/06/25 09:19:54;;;;;;;0.60;0.60;;;28.40;99.90;;;;;;5082841;28;20241;-82
2022/06/25 09:22:24;;;;;;;1.45;0.80;;;28.40;99.30;;;;;;5070312;28;20226;-80
2022/06/25 09:24:53;;;;;;;0.82;0.60;;;27.00;99.90;;;;;;5075853;28;20211;-80
2022/06/25 09:27:35;;;;;;;2.30;0.70;;;27.50;99.90;;;;;;5071682;28;22055;-79
2022/06/25 09:30:10;;;;;;;3.22;0.98;;;28.10;99.90;;;;;;5080596;28;20214;-80
2022/06/25 09:32:46;;;;;;;1.40;0.80;;;29.20;99.90;;;;;;5074520;28;20570;-81
2022/06/25 09:35:28;;;;;;;3.25;0.80;;;30.10;98.60;;;;;;5089081;28;20302;-83
2022/06/25 09:38:02;;;;;;;2.03;0.70;;;30.10;94.90;;;;;;5075966;28;20207;-82
2022/06/25 09:40:30;;;;;;;1.88;0.82;;;31.00;94.30;;;;;;5074054;28;20725;-80
2022/06/25 09:42:58;;;;;;;1.08;1.00;;;31.40;93.20;;;;;;5075553;28;20266;-81
2022/06/25 09:45:26;;;;;;;0.70;0.70;;;31.30;90.40;;;;;;5085744;28;20257;-77
2022/06/25 09:47:57;;;;;;;1.55;0.70;;;31.20;92.10;;;;;;5076289;28;20218;-81
2022/06/25 09:50:26;;;;;;;2.75;0.90;;;31.80;90.40;;;;;;5074880;28;20294;-81
2022/06/25 09:52:56;;;;;;;1.75;0.82;;;31.70;91.10;;;;;;5076579;28;20207;-77
2022/06/25 09:55:27;;;;;;;1.55;0.77;;;31.60;91.10;;;;;;5075339;28;20238;-78
2022/06/25 09:57:55;;;;;;;0.85;0.77;;;31.40;90.00;;;;;;5073895;28;20701;-81
2022/06/25 10:00:25;;;;;;;0.85;0.70;;;31.30;90.40;;;;;;5080407;28;20230;-79
2022/06/25 10:02:58;;;;;;;2.47;0.93;;;31.40;87.00;;;;;;5085956;28;20214;-80
2022/06/25 10:05:31;;;;;;;0.90;0.80;;;30.70;91.90;;;;;;5074282;28;20544;-79
2022/06/25 10:08:07;;;;;;;2.20;0.88;;;30.80;90.60;;;;;;5072962;28;20548;-81
2022/06/25 10:10:40;;;;;;;2.15;0.68;;;31.30;91.10;;;;;;5078117;28;20608;-78
2022/06/25 10:13:09;;;;;;;2.45;0.85;;;30.70;92.00;;;;;;5084840;28;20203;-78
2022/06/25 10:15:38;;;;;;;2.08;0.90;;;30.00;91.00;;;;;;5076420;28;20227;-77
2022/06/25 10:18:10;;;;;;;0.63;0.63;;;28.50;93.50;;;;;;5081164;28;20296;-78
2022/06/25 10:20:39;;;;;;;2.00;0.75;;;26.90;96.00;;;;;;5079610;28;20214;-77
2022/06/25 10:23:09;;;;;;;1.38;0.85;;;27.10;96.90;;;;;;5074988;28;20207;-79
2022/06/25 10:25:41;;;;;;;1.58;0.73;;;28.20;97.30;;;;;;5072212;28;20670;-80
2022/06/25 10:28:11;;;;;;;2.88;0.85;;;27.70;98.50;;;;;;5075229;28;20658;-75
2022/06/25 10:30:48;;;;;;;1.60;0.77;;;27.30;96.90;;;;;;5076240;28;20200;-79
2022/06/25 10:33:21;;;;;;;0.65;0.65;;;27.90;96.90;;;;;;5075534;28;20640;-80
2022/06/25 10:35:50;;;;;;;0.98;0.57;;;28.70;94.90;;;;;;5077707;28;20612;-79
2022/06/25 10:38:22;;;;;;;4.00;0.70;;;29.00;95.60;;;;;;5076270;28;20219;-81
2022/06/25 10:40:56;;;;;;;0.82;0.82;;;29.60;94.70;;;;;;5075605;28;20262;-80
2022/06/25 10:43:41;;;;;;;2.15;0.80;;;30.00;95.40;;;;;;5075797;28;20235;-81
2022/06/25 10:46:49;;;;;;;3.17;0.73;;;30.20;96.20;;;;;;5074804;28;20214;-80
2022/06/25 10:49:22;;;;;;;1.90;0.75;;;30.20;94.30;;;;;;5072874;28;20419;-82
2022/06/25 10:51:52;;;;;;;2.40;0.82;;;30.80;90.90;;;;;;5081064;28;20227;-81
2022/06/25 10:54:46;;;;;;;0.68;0.60;;;30.60;92.90;;;;;;5081057;28;20257;-81
2022/06/25 10:57:40;;;;;;;1.58;0.52;;;31.20;90.00;;;;;;5061509;28;20677;-78
2022/06/25 11:00:14;;;;;;;1.25;0.80;;;30.30;85.10;;;;;;5079825;28;20239;-79
2022/06/25 11:02:42;;;;;;;2.70;0.90;;;30.30;91.20;;;;;;5078712;28;20207;-78
2022/06/25 11:05:19;;;;;;;1.40;0.63;;;30.60;90.70;;;;;;5074146;28;20629;-80
2022/06/25 11:07:47;;;;;;;1.60;0.95;;;30.30;93.90;;;;;;5073913;28;20202;-79
2022/06/25 11:10:16;;;;;;;1.10;0.75;;;30.50;91.50;;;;;;5075704;28;20207;-79
2022/06/25 11:12:49;;;;;;;1.23;0.77;;;30.90;91.00;;;;;;5068981;28;20208;-80
2022/06/25 11:15:17;;;;;;;1.17;0.68;;;30.80;90.60;;;;;;5065945;28;20253;-78
2022/06/25 11:17:46;;;;;;;0.90;0.60;;;30.70;90.90;;;;;;5075562;28;20223;-78
2022/06/25 11:20:15;;;;;;;1.52;0.70;;;30.30;90.50;;;;;;5073273;28;20216;-81
2022/06/25 11:22:48;;;;;;;2.58;0.80;;;30.20;89.30;;;;;;5074310;28;20294;-79
2022/06/25 11:30:52;;;;;;;1.83;0.80;;;30.50;91.20;;;;;;5071992;28;20226;-79
2022/06/25 11:33:20;;;;;;;0.80;0.80;;;30.60;89.60;;;;;;5073144;28;20207;-79
2022/06/25 11:35:49;;;;;;;1.58;0.60;;;30.30;90.00;;;;;;5074662;28;20624;-77
2022/06/25 11:38:20;;;;;;;3.03;0.75;;;29.90;91.10;;;;;;5072290;28;20228;-75
2022/06/25 11:40:52;;;;;;;0.77;0.75;;;28.80;89.70;;;;;;5071550;28;20231;-75
2022/06/25 11:43:21;;;;;;;1.15;0.85;;;28.80;89.40;;;;;;5072492;28;20231;-78
2022/06/25 11:45:51;;;;;;;0.63;0.50;;;29.00;90.90;;;;;;5072977;28;20249;-76
2022/06/25 11:48:20;;;;;;;0.98;0.70;;;28.70;92.40;;;;;;5078079;28;20199;-76
2022/06/25 11:50:49;;;;;;;0.65;0.63;;;28.30;94.10;;;;;;5080915;28;20613;-75
2022/06/25 11:53:26;;;;;;;0.82;0.60;;;28.50;91.60;;;;;;5075502;28;20207;-77
2022/06/25 11:55:59;;;;;;;0.70;0.70;;;28.70;92.50;;;;;;5076258;28;20207;-76
2022/06/25 11:58:28;;;;;;;1.08;0.80;;;28.50;91.40;;;;;;5069010;28;20318;-76
2022/06/25 12:00:57;;;;;;;1.63;0.65;;;28.00;91.90;;;;;;5077526;28;20301;-76
2022/06/25 12:03:26;;;;;;;2.27;0.70;;;27.90;91.90;;;;;;5074644;28;20295;-75
2022/06/25 12:05:55;;;;;;;0.60;0.60;;;28.10;96.30;;;;;;5076096;28;20207;-78
2022/06/25 12:08:26;;;;;;;1.40;0.80;;;27.80;93.50;;;;;;5073159;28;20235;-77
2022/06/25 12:10:55;;;;;;;2.83;0.80;;;27.50;95.30;;;;;;5074261;28;20211;-76
2022/06/25 12:13:27;;;;;;;0.90;0.70;;;27.60;92.80;;;;;;5083918;28;20234;-75
2022/06/25 12:15:59;;;;;;;1.70;0.70;;;27.80;92.20;;;;;;5074417;28;20242;-76
2022/06/25 12:18:35;;;;;;;0.67;0.63;;;27.90;94.60;;;;;;5074310;28;20227;-77
2022/06/25 12:21:03;;;;;;;2.37;0.83;;;28.00;91.50;;;;;;5078476;28;20206;-77
2022/06/25 12:23:53;;;;;;;2.97;0.73;;;27.60;94.00;;;;;;5078640;28;20669;-76
2022/06/25 12:26:29;;;;;;;0.70;0.70;;;27.80;93.50;;;;;;5070981;28;20210;-78
2022/06/25 12:29:12;;;;;;;2.17;0.50;;;27.70;91.10;;;;;;5070858;28;20199;-79
2022/06/25 12:31:42;;;;;;;1.13;0.80;;;27.70;91.30;;;;;;5070398;28;20239;-79
2022/06/25 12:34:10;;;;;;;1.07;0.60;;;27.70;88.50;;;;;;5072602;28;20199;-76
2022/06/25 12:36:40;;;;;;;0.67;0.60;;;27.80;92.40;;;;;;5074043;28;20273;-76
2022/06/25 12:39:33;;;;;;;3.20;0.77;;;27.50;91.80;;;;;;5073950;28;20266;-75
2022/06/25 12:42:07;;;;;;;1.23;0.80;;;27.80;93.40;;;;;;5073107;28;20287;-77
2022/06/25 12:44:37;;;;;;;0.50;0.50;;;27.60;88.60;;;;;;5069386;28;20242;-76
2022/06/25 12:47:08;;;;;;;2.37;0.90;;;27.40;90.40;;;;;;5072370;28;20210;-74
2022/06/25 12:49:48;;;;;;;0.97;0.63;;;27.60;91.20;;;;;;5076015;28;20208;-76
2022/06/25 12:52:19;;;;;;;1.07;0.70;;;27.50;91.20;;;;;;5081772;28;20207;-78
2022/06/25 12:54:50;;;;;;;2.00;0.90;;;26.90;90.40;;;;;;5076800;28;20199;-75
2022/06/25 12:57:20;;;;;;;0.70;0.70;;;26.70;91.30;;;;;;5078446;28;20543;-75
2022/06/25 12:59:52;;;;;;;1.03;0.77;;;26.60;93.50;;;;;;5078308;28;20669;-77
2022/06/25 13:02:24;;;;;;;0.80;0.80;;;26.10;91.80;;;;;;5077698;28;20209;-79
2022/06/25 13:04:53;;;;;;;1.17;0.73;;;26.20;95.00;;;;;;5078048;28;20623;-76
2022/06/25 13:07:21;;;;;;;2.77;1.00;;;26.20;93.80;;;;;;5079170;28;20203;-77
2022/06/25 13:09:51;;;;;;;2.13;0.63;;;26.50;93.10;;;;;;5083203;28;20248;-77
2022/06/25 13:12:26;;;;;;;1.10;1.00;;;26.60;93.20;;;;;;5084807;28;20207;-77
2022/06/25 13:14:55;;;;;;;2.03;0.80;;;26.00;92.50;;;;;;5088860;28;20293;-76
2022/06/25 13:17:23;;;;;;;1.40;0.83;;;26.40;93.50;;;;;;5078538;28;20680;-79
2022/06/25 13:19:52;;;;;;;2.43;0.63;;;26.60;93.80;;;;;;5081656;28;20213;-77